Grande Italia — IBTF — position and weather

sailwx.info

Track history (hours):
 
Tides and Currents Weather Stations Pressure Air Temp Water Temp Dewpoint Dewpoint Depression Visibility Wind Speed Wind Dir Waves Ship Positions

Grande Italia

Last reported at 2016-Dec-08 05:14 UTC. Time now 2016-Dec-08 06:09 UTC.
Position N 45°33' E 013°44'.

Length 177 m; draft 8 m.

Type: Ship. MMSI: 247039300.

Date/timePositionNaut miles runAvg speedWind from/ knotsBaromVisibWave heightAir tempDewpointWater temp
2016-Dec-08 05:14N 45°33' E 013°44'0 0.0
2016-Dec-08 04:32N 45°33' E 013°44'0 0.0
2016-Dec-08 03:32N 45°33' E 013°44'0 0.0
2016-Dec-08 02:26N 45°33' E 013°44'0 0.0
2016-Dec-08 01:32N 45°33' E 013°44'0 0.0
2016-Dec-08 00:32N 45°33' E 013°44'0 0.0
2016-Dec-07 23:26N 45°33' E 013°44'0 0.0
2016-Dec-07 22:17N 45°33' E 013°44'0 0.4
2016-Dec-07 21:34N 45°33' E 013°44'6 6.5
2016-Dec-07 20:33N 45°35' E 013°35'1212.1
2016-Dec-07 19:33N 45°47' E 013°33'0 0.1
2016-Dec-07 18:32N 45°47' E 013°33'0 0.0
2016-Dec-07 17:26N 45°47' E 013°33'0 0.0
2016-Dec-07 16:26N 45°47' E 013°33'0 0.0
2016-Dec-07 15:32N 45°47' E 013°33'0 0.0
2016-Dec-07 14:32N 45°47' E 013°33'0 0.0
2016-Dec-07 13:32N 45°47' E 013°33'0 0.0
2016-Dec-07 12:32N 45°47' E 013°33'0 0.0
2016-Dec-07 11:29N 45°47' E 013°33'0 0.0
2016-Dec-07 10:32N 45°47' E 013°33'0 0.0
2016-Dec-07 09:29N 45°47' E 013°33'0 0.0
2016-Dec-07 08:32N 45°47' E 013°33'0 0.0
2016-Dec-07 07:32N 45°47' E 013°33'0 0.0
2016-Dec-07 06:32N 45°47' E 013°33'0 0.0
2016-Dec-07 05:26N 45°47' E 013°33'0 0.0
2016-Dec-07 04:29N 45°47' E 013°33'0 0.0
2016-Dec-07 03:29N 45°47' E 013°33'0 0.0
2016-Dec-07 02:32N 45°47' E 013°33'0 0.0
2016-Dec-07 01:32N 45°47' E 013°33'0 0.0
2016-Dec-07 00:32N 45°47' E 013°33'0 0.0
2016-Dec-06 23:32N 45°47' E 013°33'0 0.0
2016-Dec-06 22:29N 45°47' E 013°33'0 0.0
2016-Dec-06 21:26N 45°47' E 013°33'0 0.0
2016-Dec-06 20:32N 45°47' E 013°33'0 0.0
2016-Dec-06 18:29N 45°47' E 013°33'0 0.0
2016-Dec-06 17:26N 45°47' E 013°33'0 0.0
2016-Dec-06 16:32N 45°47' E 013°33'0 0.0
2016-Dec-06 15:32N 45°47' E 013°33'0 0.0
2016-Dec-06 14:29N 45°47' E 013°33'0 0.0
2016-Dec-06 13:32N 45°47' E 013°33'0 0.0
2016-Dec-06 12:23N 45°47' E 013°33'0 0.0
2016-Dec-06 11:32N 45°47' E 013°33'0 0.0
2016-Dec-06 10:23N 45°47' E 013°33'0 0.0
2016-Dec-06 09:34N 45°47' E 013°33'8 7.8
2016-Dec-06 08:33N 45°40' E 013°39'1716.6
2016-Dec-06 07:33N 45°30' E 013°21'1817.7
2016-Dec-06 06:33N 45°23' E 012°58'1817.6
2016-Dec-06 05:33N 45°16' E 012°35'1313.5
2016-Dec-06 04:33N 45°21' E 012°17'7 6.6
2016-Dec-06 03:33N 45°27' E 012°15'0 0.0
2016-Dec-06 02:31N 45°27' E 012°15'0 0.0
2016-Dec-06 01:31N 45°27' E 012°15'0 0.0
2016-Dec-06 00:31N 45°27' E 012°15'0 0.0
2016-Dec-05 23:31N 45°27' E 012°15'0 0.0
2016-Dec-05 22:31N 45°27' E 012°15'0 0.0
2016-Dec-05 21:31N 45°27' E 012°15'0 0.0
2016-Dec-05 20:31N 45°27' E 012°15'0 0.0
2016-Dec-05 19:31N 45°27' E 012°15'0 0.0
2016-Dec-05 18:31N 45°27' E 012°15'3 3.3
2016-Dec-05 17:34N 45°24' E 012°16'1010.1
2016-Dec-05 16:34N 45°18' E 012°27'1817.5
2016-Dec-05 15:33N 45°08' E 012°47'1515.1
2016-Dec-05 14:34N 44°53' E 012°49'1817.8
2016-Dec-05 13:34N 44°39' E 012°33'1513.7
2016-Dec-05 12:26N 44°29' E 012°16'2 1.1
2016-Dec-05 10:25N 44°27' E 012°15'0 0.0
2016-Dec-05 08:28N 44°27' E 012°15'43 3.3
2016-Dec-04 19:19N 44°18' E 013°13'64015.3
2016-Dec-03 01:33N 37°26' E 024°01'1818.0
2016-Dec-03 00:33N 37°41' E 024°14'1818.3
2016-Dec-02 23:33N 37°52' E 024°32'263 5.7
2016-Dec-01 01:33N 40°25' E 029°07'5 4.6
2016-Dec-01 00:33N 40°26' E 029°01'22610.1
2016-Nov-30 02:06N 37°33' E 025°54'51015.6
2016-Nov-28 17:18N 32°56' E 034°39'1216.5
2016-Nov-28 16:33N 32°54' E 034°54'7 6.9
2016-Nov-28 15:33N 32°49' E 035°00'0 0.0
2016-Nov-28 14:33N 32°49' E 035°00'0 0.0
2016-Nov-28 13:33N 32°49' E 035°00'0 0.0
2016-Nov-28 12:33N 32°49' E 035°00'0 0.0
2016-Nov-28 11:33N 32°49' E 035°00'0 0.0
2016-Nov-28 10:33N 32°49' E 035°00'0 0.0
2016-Nov-28 09:33N 32°49' E 035°00'0 0.0
2016-Nov-28 08:33N 32°49' E 035°00'0 0.0
2016-Nov-28 07:33N 32°49' E 035°00'0 0.0
2016-Nov-28 06:33N 32°49' E 035°00'0 0.0
2016-Nov-28 05:33N 32°49' E 035°00'  
Track history (hours):
 
Tides and Currents Weather Stations Pressure Air Temp Water Temp Dewpoint Dewpoint Depression Visibility Wind Speed Wind Dir Waves Ship Positions

Grande Italia

Last reported at 2016-Dec-08 05:14 UTC. Time now 2016-Dec-08 06:09 UTC.
Position N 45°33' E 013°44'.

Length 177 m; draft 8 m.

Type: Ship. MMSI: 247039300.

Date/timePositionNaut miles runAvg speedWind from/ knotsBaromVisibWave heightAir tempDewpointWater temp
2016-Dec-08 05:14N 45°33' E 013°44'0 0.0
2016-Dec-08 04:32N 45°33' E 013°44'0 0.0
2016-Dec-08 03:32N 45°33' E 013°44'0 0.0
2016-Dec-08 02:26N 45°33' E 013°44'0 0.0
2016-Dec-08 01:32N 45°33' E 013°44'0 0.0
2016-Dec-08 00:32N 45°33' E 013°44'0 0.0
2016-Dec-07 23:26N 45°33' E 013°44'0 0.0
2016-Dec-07 22:17N 45°33' E 013°44'0 0.4
2016-Dec-07 21:34N 45°33' E 013°44'6 6.5
2016-Dec-07 20:33N 45°35' E 013°35'1212.1
2016-Dec-07 19:33N 45°47' E 013°33'0 0.1
2016-Dec-07 18:32N 45°47' E 013°33'0 0.0
2016-Dec-07 17:26N 45°47' E 013°33'0 0.0
2016-Dec-07 16:26N 45°47' E 013°33'0 0.0
2016-Dec-07 15:32N 45°47' E 013°33'0 0.0
2016-Dec-07 14:32N 45°47' E 013°33'0 0.0
2016-Dec-07 13:32N 45°47' E 013°33'0 0.0
2016-Dec-07 12:32N 45°47' E 013°33'0 0.0
2016-Dec-07 11:29N 45°47' E 013°33'0 0.0
2016-Dec-07 10:32N 45°47' E 013°33'0 0.0
2016-Dec-07 09:29N 45°47' E 013°33'0 0.0
2016-Dec-07 08:32N 45°47' E 013°33'0 0.0
2016-Dec-07 07:32N 45°47' E 013°33'0 0.0
2016-Dec-07 06:32N 45°47' E 013°33'0 0.0
2016-Dec-07 05:26N 45°47' E 013°33'0 0.0
2016-Dec-07 04:29N 45°47' E 013°33'0 0.0
2016-Dec-07 03:29N 45°47' E 013°33'0 0.0
2016-Dec-07 02:32N 45°47' E 013°33'0 0.0
2016-Dec-07 01:32N 45°47' E 013°33'0 0.0
2016-Dec-07 00:32N 45°47' E 013°33'0 0.0
2016-Dec-06 23:32N 45°47' E 013°33'0 0.0
2016-Dec-06 22:29N 45°47' E 013°33'0 0.0
2016-Dec-06 21:26N 45°47' E 013°33'0 0.0
2016-Dec-06 20:32N 45°47' E 013°33'0 0.0
2016-Dec-06 18:29N 45°47' E 013°33'0 0.0
2016-Dec-06 17:26N 45°47' E 013°33'0 0.0
2016-Dec-06 16:32N 45°47' E 013°33'0 0.0
2016-Dec-06 15:32N 45°47' E 013°33'0 0.0
2016-Dec-06 14:29N 45°47' E 013°33'0 0.0
2016-Dec-06 13:32N 45°47' E 013°33'0 0.0
2016-Dec-06 12:23N 45°47' E 013°33'0 0.0
2016-Dec-06 11:32N 45°47' E 013°33'0 0.0
2016-Dec-06 10:23N 45°47' E 013°33'0 0.0
2016-Dec-06 09:34N 45°47' E 013°33'8 7.8
2016-Dec-06 08:33N 45°40' E 013°39'1716.6
2016-Dec-06 07:33N 45°30' E 013°21'1817.7
2016-Dec-06 06:33N 45°23' E 012°58'1817.6
2016-Dec-06 05:33N 45°16' E 012°35'1313.5
2016-Dec-06 04:33N 45°21' E 012°17'7 6.6
2016-Dec-06 03:33N 45°27' E 012°15'0 0.0
2016-Dec-06 02:31N 45°27' E 012°15'0 0.0
2016-Dec-06 01:31N 45°27' E 012°15'0 0.0
2016-Dec-06 00:31N 45°27' E 012°15'0 0.0
2016-Dec-05 23:31N 45°27' E 012°15'0 0.0
2016-Dec-05 22:31N 45°27' E 012°15'0 0.0
2016-Dec-05 21:31N 45°27' E 012°15'0 0.0
2016-Dec-05 20:31N 45°27' E 012°15'0 0.0
2016-Dec-05 19:31N 45°27' E 012°15'0 0.0
2016-Dec-05 18:31N 45°27' E 012°15'3 3.3
2016-Dec-05 17:34N 45°24' E 012°16'1010.1
2016-Dec-05 16:34N 45°18' E 012°27'1817.5
2016-Dec-05 15:33N 45°08' E 012°47'1515.1
2016-Dec-05 14:34N 44°53' E 012°49'1817.8
2016-Dec-05 13:34N 44°39' E 012°33'1513.7
2016-Dec-05 12:26N 44°29' E 012°16'2 1.1
2016-Dec-05 10:25N 44°27' E 012°15'0 0.0
2016-Dec-05 08:28N 44°27' E 012°15'43 3.3
2016-Dec-04 19:19N 44°18' E 013°13'64015.3
2016-Dec-03 01:33N 37°26' E 024°01'1818.0
2016-Dec-03 00:33N 37°41' E 024°14'1818.3
2016-Dec-02 23:33N 37°52' E 024°32'263 5.7
2016-Dec-01 01:33N 40°25' E 029°07'5 4.6
2016-Dec-01 00:33N 40°26' E 029°01'22610.1
2016-Nov-30 02:06N 37°33' E 025°54'51015.6
2016-Nov-28 17:18N 32°56' E 034°39'1216.5
2016-Nov-28 16:33N 32°54' E 034°54'7 6.9
2016-Nov-28 15:33N 32°49' E 035°00'0 0.0
2016-Nov-28 14:33N 32°49' E 035°00'0 0.0
2016-Nov-28 13:33N 32°49' E 035°00'0 0.0
2016-Nov-28 12:33N 32°49' E 035°00'0 0.0
2016-Nov-28 11:33N 32°49' E 035°00'0 0.0
2016-Nov-28 10:33N 32°49' E 035°00'0 0.0
2016-Nov-28 09:33N 32°49' E 035°00'0 0.0
2016-Nov-28 08:33N 32°49' E 035°00'0 0.0
2016-Nov-28 07:33N 32°49' E 035°00'0 0.0
2016-Nov-28 06:33N 32°49' E 035°00'0 0.0
2016-Nov-28 05:33N 32°49' E 035°00'  

Dump ship's entire track history